Time,TemperatureF,DewpointF,PressureIn,WindDirection,WindDirectionDegrees,WindSpeedMPH,WindSpeedGustMPH,Humidity,HourlyPrecipIn,Conditions,Clouds,dailyrainin,SoftwareType,DateUTC
2013-12-03 00:22:00,41.0,39.0,29.94,NNE,19,5.0,6.0,91,0.00,,,0.00,,2013-12-03 08:22:00,
2013-12-03 00:41:00,41.0,39.0,29.93,North,6,4.0,5.0,92,0.00,,,0.00,,2013-12-03 08:41:00,
2013-12-03 00:42:00,41.0,39.0,29.93,NNE,23,3.0,5.0,92,0.00,,,0.00,,2013-12-03 08:42:00,
2013-12-03 00:53:00,41.0,39.0,29.93,North,4,3.0,5.0,92,0.00,,,0.00,,2013-12-03 08:53:00,
2013-12-03 01:11:00,41.0,39.0,29.93,North,6,4.0,5.0,92,0.00,,,0.00,,2013-12-03 09:11:00,
2013-12-03 01:21:00,41.0,39.0,29.93,North,6,4.0,5.0,92,0.00,,,0.00,,2013-12-03 09:21:00,
2013-12-03 01:33:00,41.0,39.0,29.93,North,6,4.0,5.0,92,0.00,,,0.00,,2013-12-03 09:33:00,
2013-12-03 02:13:00,41.0,39.0,29.93,North,0,0.0,2.0,93,0.00,,,0.00,,2013-12-03 10:13:00,
2013-12-03 02:23:00,41.0,39.0,29.93,North,0,0.0,2.0,93,0.00,,,0.00,,2013-12-03 10:23:00,
2013-12-03 02:33:00,41.0,39.0,29.93,North,0,0.0,2.0,93,0.00,,,0.00,,2013-12-03 10:33:00,
2013-12-03 02:42:00,41.0,39.0,29.93,North,0,0.0,2.0,93,0.00,,,0.00,,2013-12-03 10:42:00,
2013-12-03 02:53:00,40.0,38.0,29.93,SE,143,3.0,4.0,93,0.00,,,0.00,,2013-12-03 10:53:00,
2013-12-03 03:22:00,37.0,35.0,29.91,SW,222,1.0,2.0,91,0.00,,,0.00,,2013-12-03 11:22:00,
2013-12-03 03:33:00,37.0,35.0,29.91,SW,222,1.0,2.0,91,0.00,,,0.00,,2013-12-03 11:33:00,
2013-12-03 03:42:00,37.0,35.0,29.91,SW,222,1.0,2.0,91,0.00,,,0.00,,2013-12-03 11:42:00,
2013-12-03 03:52:00,37.0,35.0,29.91,WSW,245,1.0,3.0,93,0.00,,,0.00,,2013-12-03 11:52:00,
2013-12-03 04:21:00,38.0,36.0,29.91,SW,236,2.0,4.0,93,0.00,,,0.00,,2013-12-03 12:21:00,
2013-12-03 04:52:00,39.0,37.0,29.91,South,174,5.0,7.0,92,0.00,,,0.00,,2013-12-03 12:52:00,
2013-12-03 05:21:00,38.0,36.0,29.91,South,184,2.0,4.0,92,0.00,,,0.00,,2013-12-03 13:21:00,
2013-12-03 05:42:00,38.0,36.0,29.91,SE,145,3.0,5.0,92,0.00,,,0.00,,2013-12-03 13:42:00,
2013-12-03 05:52:00,38.0,36.0,29.91,SSE,148,4.0,6.0,92,0.00,,,0.00,,2013-12-03 13:52:00,
2013-12-03 06:22:00,38.0,36.0,29.90,SE,137,3.0,5.0,91,0.00,,,0.00,,2013-12-03 14:22:00,
2013-12-03 06:52:00,38.0,36.0,29.91,SE,143,3.0,5.0,92,0.00,,,0.00,,2013-12-03 14:52:00,
2013-12-03 07:21:00,40.0,38.0,29.91,SSE,155,3.0,5.0,93,0.00,,,0.00,,2013-12-03 15:21:00,
2013-12-03 07:53:00,42.0,40.0,29.90,SE,142,2.0,5.0,93,0.00,,,0.00,,2013-12-03 15:53:00,
2013-12-03 08:22:00,45.0,43.0,29.91,South,185,3.0,5.0,93,0.00,,,0.00,,2013-12-03 16:22:00,
2013-12-03 08:52:00,47.0,45.0,29.91,South,188,2.0,6.0,91,0.00,,,0.00,,2013-12-03 16:52:00,
2013-12-03 09:22:00,49.0,46.0,29.90,SW,214,3.0,8.0,88,0.00,,,0.00,,2013-12-03 17:22:00,
2013-12-03 09:52:00,52.0,47.0,29.88,SSW,195,3.0,6.0,84,0.00,,,0.00,,2013-12-03 17:52:00,
2013-12-03 10:22:00,54.0,48.0,29.87,SSE,149,2.0,4.0,80,0.00,,,0.00,,2013-12-03 18:22:00,
2013-12-03 11:21:00,60.0,49.0,29.85,NNW,346,1.0,3.0,67,0.00,,,0.00,,2013-12-03 19:21:00,
2013-12-03 11:52:00,60.0,48.0,29.83,North,0,0.0,3.0,65,0.00,,,0.00,,2013-12-03 19:52:00,
2013-12-03 12:22:00,61.0,49.0,29.82,NE,48,2.0,6.0,65,0.00,,,0.00,,2013-12-03 20:22:00,
2013-12-03 12:42:00,61.0,50.0,29.81,NE,52,5.0,8.0,67,0.00,,,0.00,,2013-12-03 20:42:00,
2013-12-03 12:53:00,61.0,50.0,29.80,ENE,60,8.0,13.0,66,0.00,,,0.00,,2013-12-03 20:53:00,
2013-12-03 13:21:00,61.0,50.0,29.79,NE,44,7.0,11.0,68,0.00,,,0.00,,2013-12-03 21:21:00,
2013-12-03 13:44:00,60.0,50.0,29.79,ENE,64,9.0,14.0,70,0.00,,,0.00,,2013-12-03 21:44:00,
2013-12-03 13:53:00,60.0,50.0,29.78,NE,45,7.0,11.0,70,0.00,,,0.00,,2013-12-03 21:53:00,
2013-12-03 14:22:00,61.0,50.0,29.77,NE,56,6.0,12.0,68,0.00,,,0.00,,2013-12-03 22:22:00,
2013-12-03 14:53:00,59.0,50.0,29.77,NNE,29,10.0,12.0,73,0.00,,,0.00,,2013-12-03 22:53:00,
2013-12-03 15:22:00,58.0,52.0,29.76,NE,37,9.0,13.0,79,0.00,,,0.00,,2013-12-03 23:22:00,
2013-12-03 15:52:00,57.0,51.0,29.77,NNE,24,9.0,13.0,81,0.00,,,0.00,,2013-12-03 23:52:00,
2013-12-03 16:22:00,56.0,51.0,29.78,NNE,14,7.0,12.0,83,0.00,,,0.00,,2013-12-04 00:22:00,
2013-12-03 16:52:00,55.0,50.0,29.77,North,11,14.0,21.0,82,0.00,,,0.00,,2013-12-04 00:52:00,
2013-12-03 17:21:00,53.0,48.0,29.77,NNE,15,18.0,23.0,82,0.00,,,0.00,,2013-12-04 01:21:00,
2013-12-03 17:52:00,52.0,44.0,29.77,NNE,13,11.0,18.0,73,0.00,,,0.00,,2013-12-04 01:52:00,
2013-12-03 18:21:00,52.0,42.0,29.79,North,353,9.0,14.0,69,0.00,,,0.00,,2013-12-04 02:21:00,
2013-12-03 18:41:00,52.0,42.0,29.79,North,350,8.0,12.0,69,0.00,,,0.00,,2013-12-04 02:41:00,
2013-12-03 18:52:00,51.0,41.0,29.80,NNW,345,12.0,14.0,68,0.00,,,0.00,,2013-12-04 02:52:00,
2013-12-03 19:21:00,51.0,42.0,29.81,North,349,8.0,14.0,70,0.00,,,0.00,,2013-12-04 03:21:00,
2013-12-03 19:54:00,50.0,41.0,29.82,NNW,342,7.0,10.0,71,0.00,,,0.00,,2013-12-04 03:54:00,
2013-12-03 20:13:00,50.0,41.0,29.83,NNW,341,6.0,10.0,71,0.00,,,0.00,,2013-12-04 04:13:00,
2013-12-03 20:23:00,50.0,41.0,29.83,NW,324,5.0,10.0,70,0.00,,,0.00,,2013-12-04 04:23:00,
2013-12-03 20:52:00,49.0,37.0,29.85,NW,323,7.0,11.0,63,0.00,,,0.00,,2013-12-04 04:52:00,
2013-12-03 21:22:00,45.0,35.0,29.85,NW,310,6.0,10.0,67,0.00,,,0.00,,2013-12-04 05:22:00,
2013-12-03 21:53:00,43.0,33.0,29.87,NW,304,6.0,8.0,68,0.00,,,0.00,,2013-12-04 05:53:00,
2013-12-03 22:22:00,41.0,31.0,29.87,WNW,301,6.0,8.0,68,0.00,,,0.00,,2013-12-04 06:22:00,
2013-12-03 22:52:00,40.0,31.0,29.87,WNW,303,7.0,10.0,69,0.00,,,0.00,,2013-12-04 06:52:00,
2013-12-03 23:21:00,40.0,30.0,29.88,WNW,294,5.0,9.0,67,0.00,,,0.00,,2013-12-04 07:21:00,
2013-12-03 23:41:00,38.0,29.0,29.88,WNW,284,6.0,7.0,70,0.00,,,0.00,,2013-12-04 07:41:00,
2013-12-03 23:52:00,38.0,29.0,29.89,WNW,297,3.0,5.0,71,0.00,,,0.00,,2013-12-04 07:52:00,